createdAt,value
2018-12-29T00:02:13.265Z,5.00
2018-12-29T00:04:44.571Z,5.08
2018-12-29T00:07:16.568Z,5.20
2018-12-29T00:09:47.897Z,5.23
2018-12-29T00:12:18.888Z,5.14
2018-12-29T00:14:54.958Z,5.18
2018-12-29T00:17:23.464Z,5.22
2018-12-29T00:19:54.546Z,5.13
2018-12-29T00:22:25.569Z,5.15
2018-12-29T00:24:56.558Z,5.13
2018-12-29T00:27:27.804Z,5.07
2018-12-29T00:30:01.279Z,5.12
2018-12-29T00:32:32.495Z,5.09
2018-12-29T00:35:03.827Z,5.10
2018-12-29T00:37:35.053Z,5.01
2018-12-29T00:40:06.437Z,4.94
2018-12-29T00:42:38.551Z,5.03
2018-12-29T00:45:09.550Z,5.04
2018-12-29T00:47:40.874Z,5.00
2018-12-29T00:50:12.142Z,5.06
2018-12-29T00:52:43.603Z,5.07
2018-12-29T00:55:14.794Z,4.96
2018-12-29T00:57:45.782Z,4.95
2018-12-29T01:00:17.940Z,4.86
2018-12-29T01:02:50.584Z,4.68
2018-12-29T01:05:21.868Z,5.01
2018-12-29T01:07:53.817Z,5.04
2018-12-29T01:10:24.897Z,4.99
2018-12-29T01:12:55.880Z,4.98
2018-12-29T01:15:27.075Z,5.02
2018-12-29T01:17:58.098Z,4.90
2018-12-29T01:20:29.090Z,4.97
2018-12-29T01:23:00.774Z,4.88
2018-12-29T01:25:31.761Z,4.98
2018-12-29T01:28:02.755Z,4.92
2018-12-29T01:30:35.699Z,4.94
2018-12-29T01:33:06.989Z,4.95
2018-12-29T01:35:37.972Z,4.75
2018-12-29T01:38:09.091Z,4.89
2018-12-29T01:40:40.418Z,4.99
2018-12-29T01:43:11.427Z,5.00
2018-12-29T01:45:42.746Z,4.88
2018-12-29T01:48:13.720Z,5.05
2018-12-29T01:50:44.709Z,4.96
2018-12-29T01:53:15.755Z,5.00
2018-12-29T01:55:47.078Z,5.08
2018-12-29T01:58:18.112Z,5.06
2018-12-29T02:00:49.626Z,5.10
2018-12-29T02:03:20.884Z,5.10
2018-12-29T02:05:51.877Z,5.11
2018-12-29T02:08:23.512Z,5.07
2018-12-29T02:10:55.098Z,4.96
2018-12-29T02:13:26.135Z,4.85
2018-12-29T02:15:57.763Z,4.88
2018-12-29T02:18:29.423Z,4.90
2018-12-29T02:21:00.688Z,4.92
2018-12-29T02:23:32.653Z,4.94
2018-12-29T02:26:04.304Z,4.88
2018-12-29T02:28:36.901Z,4.90
2018-12-29T02:31:08.144Z,4.87
2018-12-29T02:33:39.119Z,4.88
2018-12-29T02:36:10.530Z,4.86
2018-12-29T02:38:41.748Z,4.98
2018-12-29T02:41:13.096Z,4.90
2018-12-29T02:43:44.545Z,4.99
2018-12-29T02:46:15.538Z,4.99
2018-12-29T02:48:46.513Z,4.98
2018-12-29T02:51:17.774Z,4.94
2018-12-29T02:53:49.098Z,4.95
2018-12-29T02:56:20.566Z,4.89
2018-12-29T02:58:51.538Z,4.90
2018-12-29T03:01:22.880Z,4.86
2018-12-29T03:03:53.850Z,4.85
2018-12-29T03:06:24.858Z,4.96
2018-12-29T03:08:56.180Z,4.99
2018-12-29T03:11:27.455Z,4.87
2018-12-29T03:13:58.438Z,4.88
2018-12-29T03:16:29.444Z,4.82
2018-12-29T03:19:02.198Z,4.88
2018-12-29T03:21:33.174Z,4.95
2018-12-29T03:24:04.149Z,4.82
2018-12-29T03:26:36.956Z,4.83
2018-12-29T03:29:08.011Z,4.88
2018-12-29T03:31:38.997Z,4.97
2018-12-29T03:34:10.291Z,5.07
2018-12-29T03:36:41.752Z,5.05
2018-12-29T03:39:12.971Z,5.03
2018-12-29T03:41:44.330Z,5.01
2018-12-29T03:44:16.397Z,5.04
2018-12-29T03:46:47.363Z,4.94
2018-12-29T03:49:18.590Z,5.06
2018-12-29T03:51:49.635Z,5.00
2018-12-29T03:54:20.617Z,4.88
2018-12-29T03:56:52.093Z,4.96
2018-12-29T03:59:23.376Z,4.87
2018-12-29T04:01:54.591Z,4.89
2018-12-29T04:04:26.091Z,4.79
2018-12-29T04:06:57.058Z,4.91
2018-12-29T04:09:38.255Z,4.99
2018-12-29T04:12:16.962Z,4.95
2018-12-29T04:14:48.349Z,5.02
2018-12-29T04:17:19.315Z,4.95
2018-12-29T04:19:50.301Z,4.91
2018-12-29T04:22:21.303Z,4.83
2018-12-29T04:24:52.271Z,4.83
2018-12-29T04:27:23.269Z,4.86
2018-12-29T04:29:55.513Z,4.84
2018-12-29T04:32:26.474Z,4.84
2018-12-29T04:34:57.812Z,4.75
2018-12-29T04:37:29.159Z,4.81
2018-12-29T04:40:00.250Z,4.80
2018-12-29T04:42:31.203Z,4.83
2018-12-29T04:45:02.179Z,4.89
2018-12-29T04:47:33.628Z,4.82
2018-12-29T04:50:05.050Z,4.87
2018-12-29T04:52:36.030Z,4.66
2018-12-29T04:55:07.466Z,4.51
2018-12-29T04:57:38.432Z,4.56
2018-12-29T05:00:09.979Z,4.60
2018-12-29T05:02:40.948Z,4.58
2018-12-29T05:05:12.273Z,4.64
2018-12-29T05:07:43.307Z,4.70
2018-12-29T05:10:14.368Z,4.56
2018-12-29T05:12:45.408Z,4.52
2018-12-29T05:15:16.334Z,4.50
2018-12-29T05:17:47.865Z,4.51
2018-12-29T05:20:20.444Z,4.57
2018-12-29T05:22:51.414Z,4.37
2018-12-29T05:25:22.750Z,4.61
2018-12-29T05:27:54.207Z,4.56
2018-12-29T05:30:25.520Z,4.55
2018-12-29T05:32:56.496Z,4.60
2018-12-29T05:35:27.508Z,4.54
2018-12-29T05:37:58.749Z,4.41
2018-12-29T05:40:29.926Z,4.57
2018-12-29T05:43:00.901Z,4.60
2018-12-29T05:45:31.883Z,4.62
2018-12-29T05:48:02.857Z,4.48
2018-12-29T05:50:34.173Z,4.43
2018-12-29T05:53:05.817Z,4.47
2018-12-29T05:55:36.795Z,4.53
2018-12-29T05:58:08.514Z,4.51
2018-12-29T06:00:39.507Z,4.55
2018-12-29T06:03:10.472Z,4.55
2018-12-29T06:05:41.997Z,4.58
2018-12-29T06:08:12.958Z,4.63
2018-12-29T06:10:44.251Z,4.66
2018-12-29T06:13:15.305Z,4.69
2018-12-29T06:15:46.292Z,4.58
2018-12-29T06:18:17.534Z,4.53
2018-12-29T06:20:49.127Z,4.62
2018-12-29T06:23:20.111Z,4.52
2018-12-29T06:25:51.955Z,4.54
2018-12-29T06:28:22.943Z,4.55
2018-12-29T06:30:54.329Z,4.59
2018-12-29T06:33:25.681Z,4.64
2018-12-29T06:35:56.901Z,4.61
2018-12-29T06:38:29.133Z,4.55
2018-12-29T06:41:00.341Z,4.58
2018-12-29T06:43:31.574Z,4.62
2018-12-29T06:46:03.007Z,4.58
2018-12-29T06:48:34.601Z,4.67
2018-12-29T06:51:05.585Z,4.63
2018-12-29T06:53:37.055Z,4.73
2018-12-29T06:56:08.119Z,4.79
2018-12-29T06:58:39.341Z,4.75
2018-12-29T07:01:10.894Z,4.68
2018-12-29T07:03:41.881Z,4.66
2018-12-29T07:06:13.323Z,4.72
2018-12-29T07:08:44.664Z,4.65
2018-12-29T07:11:15.638Z,4.74
2018-12-29T07:13:46.622Z,4.68
2018-12-29T07:16:18.293Z,4.61
2018-12-29T07:18:49.631Z,4.61
2018-12-29T07:21:21.084Z,4.58
2018-12-29T07:23:52.145Z,4.64
2018-12-29T07:26:23.182Z,4.63
2018-12-29T07:28:55.217Z,4.58
2018-12-29T07:31:26.589Z,4.72
2018-12-29T07:33:57.566Z,4.73
2018-12-29T07:36:28.847Z,4.66
2018-12-29T07:38:59.911Z,4.76
2018-12-29T07:41:31.802Z,4.75
2018-12-29T07:44:03.101Z,4.74
2018-12-29T07:46:34.069Z,4.65
2018-12-29T07:49:05.131Z,4.71
2018-12-29T07:51:36.739Z,4.76
2018-12-29T07:54:08.412Z,4.74
2018-12-29T07:56:39.425Z,4.75
2018-12-29T07:59:10.374Z,4.82
2018-12-29T08:01:41.343Z,4.75
2018-12-29T08:04:12.458Z,4.75
2018-12-29T08:06:43.422Z,4.79
2018-12-29T08:09:14.404Z,4.82
2018-12-29T08:11:45.379Z,4.78
2018-12-29T08:14:16.641Z,4.82
2018-12-29T08:16:47.690Z,4.90
2018-12-29T08:19:19.007Z,4.81
2018-12-29T08:21:50.576Z,4.93
2018-12-29T08:24:21.914Z,4.90
2018-12-29T08:26:52.900Z,4.96
2018-12-29T08:29:23.897Z,4.96
2018-12-29T08:31:54.871Z,4.76
2018-12-29T08:34:26.189Z,4.82
2018-12-29T08:36:57.837Z,4.86
2018-12-29T08:39:29.226Z,4.87
2018-12-29T08:42:00.751Z,4.82
2018-12-29T08:44:32.538Z,4.78
2018-12-29T08:47:04.734Z,4.82
2018-12-29T08:49:35.901Z,4.86
2018-12-29T08:52:07.162Z,4.90
2018-12-29T08:54:38.514Z,4.98
2018-12-29T08:57:09.754Z,4.88
2018-12-29T08:59:41.100Z,4.91
2018-12-29T09:02:12.083Z,4.98
2018-12-29T09:04:43.369Z,5.03
2018-12-29T09:07:14.653Z,4.90
2018-12-29T09:09:45.705Z,4.92
2018-12-29T09:12:17.034Z,5.04
2018-12-29T09:14:49.035Z,5.16
2018-12-29T09:17:20.338Z,5.06
2018-12-29T09:19:51.332Z,5.23
2018-12-29T09:22:22.626Z,5.13
2018-12-29T09:24:54.923Z,5.12
2018-12-29T09:27:26.544Z,5.13
2018-12-29T09:29:57.529Z,5.15
2018-12-29T09:32:28.811Z,5.11
2018-12-29T09:37:29.871Z,5.15
2018-12-29T09:40:01.076Z,5.27
2018-12-29T09:42:32.993Z,5.25
2018-12-29T09:45:04.062Z,5.21
2018-12-29T09:47:35.111Z,5.25
2018-12-29T09:50:06.805Z,5.24
2018-12-29T09:52:38.030Z,5.27
2018-12-29T09:55:09.517Z,5.33
2018-12-29T09:57:40.786Z,5.43
2018-12-29T10:00:12.032Z,5.43
2018-12-29T10:02:43.080Z,5.49
2018-12-29T10:05:14.064Z,5.43
2018-12-29T10:07:45.898Z,5.57
2018-12-29T10:10:16.926Z,5.36
2018-12-29T10:12:47.886Z,5.37
2018-12-29T10:15:18.867Z,5.46
2018-12-29T10:17:50.164Z,5.60
2018-12-29T10:20:21.495Z,5.54
2018-12-29T10:22:53.975Z,5.62
2018-12-29T10:25:25.045Z,5.51
2018-12-29T10:27:56.679Z,5.61
2018-12-29T10:30:27.894Z,5.71
2018-12-29T10:32:59.380Z,5.64
2018-12-29T10:35:30.444Z,5.66
2018-12-29T10:38:01.456Z,5.71
2018-12-29T10:40:33.697Z,5.73
2018-12-29T10:43:04.981Z,5.78
2018-12-29T10:45:36.290Z,5.76
2018-12-29T10:48:07.651Z,5.83
2018-12-29T10:50:39.033Z,5.79
2018-12-29T10:53:10.312Z,5.82
2018-12-29T10:55:41.362Z,5.90
2018-12-29T10:58:12.414Z,5.89
2018-12-29T11:00:43.816Z,5.95
2018-12-29T11:03:14.798Z,6.09
2018-12-29T11:05:46.118Z,6.13
2018-12-29T11:08:17.115Z,6.29
2018-12-29T11:10:49.256Z,6.35
2018-12-29T11:13:20.228Z,6.38
2018-12-29T11:15:51.216Z,6.32
2018-12-29T11:18:22.529Z,6.38
2018-12-29T11:20:54.073Z,6.31
2018-12-29T11:23:25.340Z,6.44
2018-12-29T11:25:56.331Z,6.49
2018-12-29T11:28:27.535Z,6.60
2018-12-29T11:30:59.283Z,6.64
2018-12-29T11:33:30.592Z,6.71
2018-12-29T11:36:01.830Z,6.71
2018-12-29T11:38:33.099Z,6.62
2018-12-29T11:41:04.108Z,6.63
2018-12-29T11:43:35.737Z,6.72
2018-12-29T11:46:06.752Z,6.70
2018-12-29T11:48:39.297Z,6.72
2018-12-29T11:51:10.567Z,6.62
2018-12-29T11:53:42.958Z,6.69
2018-12-29T11:56:14.267Z,6.73
2018-12-29T11:58:45.924Z,6.73
2018-12-29T12:01:16.950Z,6.82
2018-12-29T12:03:48.415Z,6.89
2018-12-29T12:06:19.655Z,6.90
2018-12-29T12:08:51.033Z,7.02
2018-12-29T12:11:22.475Z,6.96
2018-12-29T12:13:53.704Z,7.02
2018-12-29T12:16:24.948Z,7.01
2018-12-29T12:18:56.152Z,7.03
2018-12-29T12:21:27.462Z,7.09
2018-12-29T12:23:58.793Z,7.17
2018-12-29T12:26:30.096Z,7.16
2018-12-29T12:29:01.084Z,7.12
2018-12-29T12:31:33.004Z,7.13
2018-12-29T12:34:05.021Z,7.13
2018-12-29T12:36:36.188Z,7.17
2018-12-29T12:39:08.888Z,7.15
2018-12-29T12:41:40.947Z,7.12
2018-12-29T12:44:11.959Z,7.22
2018-12-29T12:46:43.323Z,7.23
2018-12-29T12:49:14.944Z,7.30
2018-12-29T12:51:46.422Z,7.36
2018-12-29T12:54:17.459Z,7.25
2018-12-29T12:56:48.779Z,7.16
2018-12-29T12:59:20.758Z,7.28
2018-12-29T13:01:52.146Z,7.34
2018-12-29T13:04:23.730Z,7.36
2018-12-29T13:06:55.924Z,7.31
2018-12-29T13:09:27.372Z,7.31
2018-12-29T13:11:58.713Z,7.23
2018-12-29T13:14:29.680Z,7.24
2018-12-29T13:17:00.676Z,7.32
2018-12-29T13:19:31.885Z,7.32
2018-12-29T13:22:02.879Z,7.34
2018-12-29T13:24:34.327Z,7.35
2018-12-29T13:27:05.313Z,7.40
2018-12-29T13:29:36.332Z,7.34
2018-12-29T13:32:07.902Z,7.26
2018-12-29T13:34:39.114Z,7.31
2018-12-29T13:37:10.103Z,7.32
2018-12-29T13:39:41.445Z,7.36
2018-12-29T13:42:12.691Z,7.38
2018-12-29T13:44:43.677Z,7.30
2018-12-29T13:47:15.031Z,7.39
2018-12-29T13:49:46.308Z,7.34
2018-12-29T13:52:17.567Z,7.37
2018-12-29T13:54:48.549Z,7.39
2018-12-29T13:57:19.842Z,7.45
2018-12-29T13:59:51.131Z,7.41
2018-12-29T14:02:22.368Z,7.44
2018-12-29T14:04:53.348Z,7.47
2018-12-29T14:07:24.424Z,7.26
2018-12-29T14:09:56.253Z,7.23
2018-12-29T14:12:27.255Z,7.29
2018-12-29T14:14:58.871Z,7.38
2018-12-29T14:17:29.894Z,7.30
2018-12-29T14:20:01.270Z,7.41
2018-12-29T14:22:32.630Z,7.43
2018-12-29T14:25:04.051Z,7.42
2018-12-29T14:27:35.411Z,7.45
2018-12-29T14:30:06.843Z,7.56
2018-12-29T14:32:38.109Z,7.39
2018-12-29T14:35:09.119Z,7.46
2018-12-29T14:37:40.124Z,7.44
2018-12-29T14:40:11.754Z,7.54
2018-12-29T14:42:43.093Z,7.57
2018-12-29T14:45:15.321Z,7.38
2018-12-29T14:47:46.313Z,7.28
2018-12-29T14:50:17.283Z,7.39
2018-12-29T14:52:48.573Z,7.47
2018-12-29T14:55:19.922Z,7.52
2018-12-29T14:57:51.171Z,7.54
2018-12-29T15:00:22.410Z,7.47
2018-12-29T15:02:53.419Z,7.54
2018-12-29T15:05:24.635Z,7.60
2018-12-29T15:07:59.206Z,7.64
2018-12-29T15:10:30.996Z,7.65
2018-12-29T15:13:02.728Z,7.65
2018-12-29T15:15:33.969Z,7.70
2018-12-29T15:18:05.525Z,7.73
2018-12-29T15:20:37.671Z,7.56
2018-12-29T15:23:08.965Z,7.60
2018-12-29T15:25:40.393Z,7.71
2018-12-29T15:28:12.785Z,7.57
2018-12-29T15:30:44.526Z,7.65
2018-12-29T15:33:16.203Z,7.75
2018-12-29T15:35:47.969Z,7.81
2018-12-29T15:38:19.282Z,7.71
2018-12-29T15:40:51.268Z,7.73
2018-12-29T15:43:22.620Z,7.65
2018-12-29T15:45:53.862Z,7.81
2018-12-29T15:48:25.143Z,7.77
2018-12-29T15:50:56.359Z,7.74
2018-12-29T15:53:27.656Z,7.74
2018-12-29T15:55:58.628Z,7.72
2018-12-29T15:58:29.892Z,7.72
2018-12-29T16:01:01.860Z,7.76
2018-12-29T16:03:33.217Z,7.65
2018-12-29T16:06:05.166Z,7.69
2018-12-29T16:08:37.558Z,7.67
2018-12-29T16:11:08.965Z,7.72
2018-12-29T16:13:43.153Z,7.46
2018-12-29T16:16:15.669Z,7.57
2018-12-29T16:18:47.076Z,7.64
2018-12-29T16:21:19.408Z,7.60
2018-12-29T16:23:50.942Z,7.60
2018-12-29T16:26:22.205Z,7.67
2018-12-29T16:28:53.856Z,7.56
2018-12-29T16:31:25.813Z,7.67
2018-12-29T16:33:57.967Z,7.60
2018-12-29T16:36:29.990Z,7.60
2018-12-29T16:39:01.083Z,7.61
2018-12-29T16:41:34.183Z,7.56
2018-12-29T16:44:06.561Z,7.48
2018-12-29T16:46:37.813Z,7.41
2018-12-29T16:49:08.844Z,7.35
2018-12-29T16:51:40.384Z,7.40
2018-12-29T16:54:12.226Z,7.38
2018-12-29T16:56:44.174Z,7.28
2018-12-29T16:59:15.491Z,7.25
2018-12-29T17:01:48.461Z,7.24
2018-12-29T17:04:21.462Z,7.23
2018-12-29T17:06:52.912Z,7.19
2018-12-29T17:09:24.749Z,7.22
2018-12-29T17:11:56.919Z,7.39
2018-12-29T17:14:28.694Z,7.38
2018-12-29T17:17:00.181Z,7.32
2018-12-29T17:19:31.838Z,7.32
2018-12-29T17:22:03.323Z,7.33
2018-12-29T17:24:34.663Z,7.31
2018-12-29T17:27:06.532Z,7.33
2018-12-29T17:29:38.359Z,7.34
2018-12-29T17:32:09.579Z,7.32
2018-12-29T17:34:40.809Z,7.40
2018-12-29T17:37:12.012Z,7.35
2018-12-29T17:39:44.060Z,7.37
2018-12-29T17:42:15.604Z,7.37
2018-12-29T17:44:47.020Z,7.35
2018-12-29T17:47:18.013Z,7.29
2018-12-29T17:49:49.186Z,7.31
2018-12-29T17:52:20.572Z,7.17
2018-12-29T17:57:41.242Z,7.24
2018-12-29T18:00:24.548Z,7.12
2018-12-29T18:02:56.150Z,7.20
2018-12-29T18:05:40.075Z,7.18
2018-12-29T18:08:31.258Z,7.11
2018-12-29T18:11:14.885Z,7.09
2018-12-29T18:14:05.147Z,7.11
2018-12-29T18:17:06.951Z,7.25
2018-12-29T18:23:02.766Z,7.32
2018-12-29T18:29:46.166Z,7.18
2018-12-29T18:35:44.366Z,7.02
2018-12-29T18:38:28.618Z,7.04
2018-12-29T18:41:12.056Z,7.11
2018-12-29T18:47:04.197Z,7.09
2018-12-29T18:49:54.847Z,7.10
2018-12-29T18:52:59.114Z,7.07
2018-12-29T18:55:49.718Z,7.12
2018-12-29T18:58:51.886Z,7.09
2018-12-29T19:01:42.334Z,7.10
2018-12-29T19:04:25.089Z,7.16
2018-12-29T19:10:24.345Z,7.20
2018-12-29T19:13:16.103Z,7.33
2018-12-29T19:16:06.118Z,7.24
2018-12-29T19:18:56.553Z,7.10
2018-12-29T19:22:00.326Z,7.02
2018-12-29T19:24:50.787Z,7.00
2018-12-29T19:27:34.113Z,7.08
2018-12-29T19:30:24.619Z,7.12
2018-12-29T19:33:28.100Z,7.15
2018-12-29T19:36:19.184Z,7.11
2018-12-29T19:39:11.269Z,7.46
2018-12-29T19:42:01.477Z,7.30
2018-12-29T19:44:58.761Z,7.14
2018-12-29T19:47:48.966Z,7.30
2018-12-29T19:50:53.015Z,7.30
2018-12-29T19:53:44.226Z,7.27
2018-12-29T19:56:27.541Z,7.36
2018-12-29T19:59:18.258Z,7.40
2018-12-29T20:04:31.152Z,7.38
2018-12-29T20:07:21.898Z,7.19
2018-12-29T20:10:05.513Z,7.31
2018-12-29T20:12:56.030Z,7.29
2018-12-29T20:15:39.553Z,7.21
2018-12-29T20:18:22.534Z,7.25
2018-12-29T20:21:13.311Z,7.31
2018-12-29T20:23:56.766Z,7.30
2018-12-29T20:26:47.218Z,7.33
2018-12-29T20:29:30.952Z,7.21
2018-12-29T20:32:22.478Z,7.06
2018-12-29T20:35:05.376Z,7.02
2018-12-29T20:37:48.914Z,7.08
2018-12-29T20:40:39.350Z,7.12
2018-12-29T20:43:22.484Z,7.21
2018-12-29T20:46:13.497Z,7.07
2018-12-29T20:48:56.890Z,7.12
2018-12-29T20:51:47.801Z,7.17
2018-12-29T20:54:30.722Z,7.08
2018-12-29T20:57:21.422Z,7.18
2018-12-29T21:00:04.143Z,7.13
2018-12-29T21:03:14.106Z,7.13
2018-12-29T21:05:57.116Z,7.07
2018-12-29T21:08:28.646Z,7.10
2018-12-29T21:11:11.200Z,7.21
2018-12-29T21:13:58.526Z,7.17
2018-12-29T21:16:42.901Z,7.17
2018-12-29T21:19:25.931Z,6.93
2018-12-29T21:25:25.816Z,7.07
2018-12-29T21:28:29.189Z,7.26
2018-12-29T21:31:19.972Z,7.21
2018-12-29T21:34:02.875Z,7.03
2018-12-29T21:36:53.341Z,6.94
2018-12-29T21:39:36.067Z,6.90
2018-12-29T21:42:26.566Z,6.88
2018-12-29T21:45:16.433Z,7.07
2018-12-29T21:48:26.518Z,7.07
2018-12-29T21:51:07.909Z,7.12
2018-12-29T21:57:05.539Z,7.13
2018-12-29T21:59:49.220Z,7.19
2018-12-29T22:02:32.497Z,7.32
2018-12-29T22:05:15.799Z,7.40
2018-12-29T22:08:06.248Z,7.32
2018-12-29T22:10:49.315Z,7.41
2018-12-29T22:13:32.415Z,7.26
2018-12-29T22:16:22.891Z,7.30
2018-12-29T22:19:04.394Z,7.23
2018-12-29T22:22:14.081Z,7.30
2018-12-29T22:25:18.173Z,7.17
2018-12-29T22:28:08.637Z,7.43
2018-12-29T22:30:51.520Z,7.37
2018-12-29T22:33:42.267Z,7.38
2018-12-29T22:36:25.125Z,7.44
2018-12-29T22:39:16.608Z,7.64
2018-12-29T22:42:21.038Z,7.53
2018-12-29T22:45:11.528Z,7.36
2018-12-29T22:47:54.833Z,7.41
2018-12-29T22:50:45.346Z,7.52
2018-12-29T22:53:28.362Z,7.44
2018-12-29T22:56:18.805Z,7.66
2018-12-29T22:59:22.899Z,7.44
2018-12-29T23:02:13.967Z,7.67
2018-12-29T23:04:57.423Z,7.70
2018-12-29T23:10:49.926Z,7.87
2018-12-29T23:16:49.737Z,7.68
2018-12-29T23:19:32.583Z,7.81
2018-12-29T23:22:03.534Z,7.80
2018-12-29T23:24:46.230Z,7.94
2018-12-29T23:27:36.406Z,7.86
2018-12-29T23:30:19.893Z,7.85
2018-12-29T23:33:10.628Z,7.99
2018-12-29T23:35:53.944Z,7.98
2018-12-29T23:38:36.815Z,7.87
2018-12-29T23:41:27.019Z,7.81
2018-12-29T23:44:09.959Z,7.76
2018-12-29T23:47:00.246Z,7.73
2018-12-29T23:50:04.264Z,7.69
2018-12-29T23:52:54.798Z,7.82
2018-12-29T23:55:57.197Z,7.88
2018-12-29T23:58:47.379Z,8.06
